Huvudsida
METAR-TAF:

METAR-TAF

Flygplatser :

Berlevågs flygplats

Berlevågs, Norge

latitud: 70-52N, longitud: 029-02E, höjd: 1 m

Aktuellt väderrapport

Denna rapport gjordes för 9 timmar och 44 minuter sedan, klockan 15:50 UTC
Vind 18 kt från syd
Temperatur 20°C
Fuktighet 68%
Tryck 998 hPa
Sikt 10 km eller mer
Få moln på en höjd av 2000 ft
Brutna moln på en höjd av 6000 ft

METAR: ENBV 171550Z 19018KT 9999 FEW020 BKN060 20/14 Q0998

Tid: 03:34 (01:34 UTC)

Väderprognos

Denna rapport gjordes för 8 timmar och 34 minuter sedan, klockan 17:00 UTC
Prognos gäller från 20 kl. 18 UTC till 20 kl. 21 UTC
Vind 15 kt från väst
Sikt 10 km eller mer
Spridda moln på en höjd av 2000 ft
Brutna moln på en höjd av 4000 ft

TAF: ENBV 201700Z 2018/2021 26015KT 9999 SCT020 BKN040

Aktuella väderrapporter och prognoser från 4000 flygplatser (METAR- och TAF-rapporter).

De tillgängliga stationerna syns som gula och röda prickar på kartan.

För musen över prickarna för att se namnen på stationerna.

Klicka sedan för att få väderrapporter och prognoser.

För att ändra kartan: Klicka på de gröna knapparna med ett svart kors på för att zooma in; den gröna knappen med ett streck på för att zooma ut; eller på de gröna pilarna för angränsande kartor.


METAR-TAF: